Time;durP1;ratioP1;P1;durP2;ratioP2;P2;SDS_P1;SDS_P2;PMS_P1;PMS_P2;Temp;Humidity;BMP_temperature;BMP_pressure;BME280_temperature;BME280_humidity;BME280_pressure;Samples;Min_cycle;Max_cycle;Signal;HPM_P1;HPM_P2
2021/01/30 00:00:34;;;;;;;36.03;18.27;;;;;;;-8.17;77.16;97795.01;1807933;79;21062;-66
2021/01/30 00:03:04;;;;;;;38.10;18.62;;;;;;;-8.21;77.07;97790.81;1807903;79;21368;-66
2021/01/30 00:05:31;;;;;;;30.37;16.73;;;;;;;-8.24;76.99;97793.31;1807837;79;21148;-66
2021/01/30 00:08:01;;;;;;;21.60;12.50;;;;;;;-8.27;76.91;97796.66;1806675;79;21157;-67
2021/01/30 00:10:29;;;;;;;22.42;12.60;;;;;;;-8.30;77.07;97800.83;1807879;79;21498;-66
2021/01/30 00:12:57;;;;;;;23.20;13.25;;;;;;;-8.33;77.07;97798.31;1808020;79;21050;-66
2021/01/30 00:15:26;;;;;;;23.30;13.15;;;;;;;-8.37;77.19;97807.53;1807889;79;21365;-66
2021/01/30 00:17:55;;;;;;;20.82;12.18;;;;;;;-8.41;77.12;97819.30;1807848;78;21101;-66
2021/01/30 00:20:29;;;;;;;18.55;11.30;;;;;;;-8.52;76.94;97808.28;1807881;79;21058;-67
2021/01/30 00:22:57;;;;;;;16.25;9.48;;;;;;;-8.61;77.18;97817.05;1807885;79;21133;-65
2021/01/30 00:25:28;;;;;;;17.30;9.75;;;;;;;-8.66;77.00;97819.95;1807938;79;21681;-66
2021/01/30 00:27:56;;;;;;;16.82;8.80;;;;;;;-8.79;76.90;97819.43;1808013;79;22260;-66
2021/01/30 00:30:27;;;;;;;14.43;8.63;;;;;;;-8.90;77.00;97811.77;1807877;79;21061;-66
2021/01/30 00:32:55;;;;;;;15.25;9.08;;;;;;;-8.99;77.09;97809.16;1808004;79;21502;-65
2021/01/30 00:35:25;;;;;;;22.80;12.35;;;;;;;-9.07;77.30;97816.66;1807839;79;21113;-66
2021/01/30 00:37:53;;;;;;;33.53;16.75;;;;;;;-9.10;77.42;97812.85;1807897;79;21049;-66
2021/01/30 00:40:21;;;;;;;31.50;14.98;;;;;;;-9.12;77.47;97807.37;1807874;79;21144;-65
2021/01/30 00:42:50;;;;;;;23.35;12.30;;;;;;;-9.09;77.76;97808.66;1807694;79;21642;-65
2021/01/30 00:45:22;;;;;;;16.77;10.38;;;;;;;-9.05;77.68;97812.90;1807956;79;21584;-65
2021/01/30 00:47:51;;;;;;;16.50;10.35;;;;;;;-9.07;77.56;97816.66;1807984;79;21204;-67
2021/01/30 00:50:20;;;;;;;30.88;15.50;;;;;;;-9.09;77.68;97813.28;1807858;79;21557;-66
2021/01/30 00:52:48;;;;;;;34.45;15.78;;;;;;;-9.09;77.67;97818.73;1807963;78;22214;-66
2021/01/30 00:55:23;;;;;;;27.22;15.30;;;;;;;-9.09;77.27;97813.69;1807776;78;21530;-67
2021/01/30 00:57:52;;;;;;;44.08;19.70;;;;;;;-9.12;77.05;97809.47;1807856;79;20923;-67
2021/01/30 01:00:26;;;;;;;48.42;21.68;;;;;;;-9.10;77.31;97812.85;1807900;78;21636;-67
2021/01/30 01:02:55;;;;;;;35.35;17.92;;;;;;;-9.03;77.11;97814.17;1807881;79;21041;-66
2021/01/30 01:05:26;;;;;;;35.92;17.90;;;;;;;-9.04;76.67;97799.48;1807845;78;21176;-66
2021/01/30 01:07:54;;;;;;;32.17;17.23;;;;;;;-9.05;76.59;97804.93;1807800;79;21064;-66
2021/01/30 01:10:22;;;;;;;34.35;18.07;;;;;;;-9.03;76.72;97802.84;1807833;78;20994;-66
2021/01/30 01:12:51;;;;;;;58.55;25.97;;;;;;;-9.02;76.82;97797.82;1807832;79;21164;-66
2021/01/30 01:15:19;;;;;;;51.85;22.05;;;;;;;-8.98;77.09;97794.89;1807925;78;21576;-66
2021/01/30 01:17:48;;;;;;;50.80;22.52;;;;;;;-8.92;76.81;97788.23;1807860;79;21358;-66
2021/01/30 01:20:20;;;;;;;56.08;25.27;;;;;;;-8.90;76.58;97782.80;1807748;78;21077;-67
2021/01/30 01:22:50;;;;;;;53.92;25.30;;;;;;;-8.89;76.32;97781.97;1808030;78;21149;-67
2021/01/30 01:25:20;;;;;;;52.73;24.37;;;;;;;-8.92;76.11;97782.35;1807885;78;21061;-66
2021/01/30 01:27:47;;;;;;;51.95;25.65;;;;;;;-8.94;76.10;97797.45;1807854;79;21061;-67
2021/01/30 01:30:16;;;;;;;53.73;24.60;;;;;;;-8.94;76.24;97794.94;1807835;79;22168;-67
2021/01/30 01:32:44;;;;;;;50.88;24.75;;;;;;;-8.89;76.25;97788.68;1807776;79;21490;-67
2021/01/30 01:35:16;;;;;;;56.25;25.72;;;;;;;-8.85;76.26;97793.77;1807782;79;21089;-66
2021/01/30 01:37:44;;;;;;;51.18;24.82;;;;;;;-8.81;76.29;97780.78;1807618;79;21808;-65
2021/01/30 01:40:14;;;;;;;49.53;25.65;;;;;;;-8.78;76.18;97775.32;1807911;79;21069;-65
2021/01/30 01:42:41;;;;;;;47.93;24.77;;;;;;;-8.76;76.02;97769.88;1803957;77;21371;-67
2021/01/30 01:45:13;;;;;;;50.15;25.12;;;;;;;-8.75;76.00;97771.98;1799877;79;21592;-65
2021/01/30 01:47:44;;;;;;;54.00;27.20;;;;;;;-8.74;75.90;97766.11;1799849;78;21576;-66
2021/01/30 01:50:36;;;;;;;58.42;27.90;;;;;;;-8.70;75.78;97756.08;1784466;79;21132;-66
2021/01/30 01:53:21;;;;;;;54.83;29.12;;;;;;;-8.66;75.63;97762.40;1800087;78;21060;-66
2021/01/30 01:55:56;;;;;;;53.50;29.05;;;;;;;-8.66;75.33;97749.38;1799955;78;22115;-66
2021/01/30 01:58:24;;;;;;;49.60;25.92;;;;;;;-8.68;75.23;97753.56;1799864;79;21069;-66
2021/01/30 02:00:52;;;;;;;54.15;27.93;;;;;;;-8.66;75.55;97751.06;1784448;78;21576;-66
2021/01/30 02:03:21;;;;;;;44.20;23.02;;;;;;;-8.61;75.85;97750.27;1784532;79;21179;-65
2021/01/30 02:05:49;;;;;;;58.30;29.45;;;;;;;-8.53;75.86;97745.25;1799904;79;21104;-66
2021/01/30 02:08:20;;;;;;;67.97;36.48;;;;;;;-8.46;75.79;97741.94;1799869;79;21344;-66
2021/01/30 02:10:50;;;;;;;71.10;37.63;;;;;;;-8.42;75.48;97736.09;1799859;79;21068;-66
2021/01/30 02:13:37;;;;;;;62.38;33.70;;;;;;;-8.40;75.06;97727.70;1799885;79;21092;-67
2021/01/30 02:16:31;;;;;;;61.42;32.98;;;;;;;-8.45;75.31;97729.35;1799896;78;21040;-66
2021/01/30 02:19:32;;;;;;;61.02;32.90;;;;;;;-8.44;75.25;97731.45;1799913;79;21088;-67
2021/01/30 02:22:31;;;;;;;52.53;27.37;;;;;;;-8.52;75.61;97736.44;1757457;81;21547;-66
2021/01/30 02:25:47;;;;;;;42.17;23.40;;;;;;;-8.49;75.83;97729.31;1799743;79;21143;-65
2021/01/30 02:29:02;;;;;;;33.98;19.37;;;;;;;-8.49;75.88;97723.02;1799861;79;21052;-67
2021/01/30 02:31:38;;;;;;;40.55;22.15;;;;;;;-8.46;76.18;97727.66;1799841;79;21129;-65
2021/01/30 02:34:23;;;;;;;42.23;22.45;;;;;;;-8.40;76.30;97723.92;1799865;79;21200;-66
2021/01/30 02:36:59;;;;;;;38.58;20.75;;;;;;;-8.31;76.25;97727.27;1794107;78;21540;-66
2021/01/30 02:39:31;;;;;;;31.80;16.40;;;;;;;-8.26;75.91;97720.58;1784280;79;21081;-66
2021/01/30 02:42:18;;;;;;;19.77;11.38;;;;;;;-8.24;75.85;97723.55;1799729;79;21156;-67
2021/01/30 02:45:02;;;;;;;21.30;12.00;;;;;;;-8.21;75.64;97722.72;1799873;79;21041;-65
2021/01/30 02:47:34;;;;;;;36.77;17.73;;;;;;;-8.21;75.28;97712.21;1799751;79;21123;-66
2021/01/30 02:52:45;;;;;;;29.95;16.73;;;;;;;-8.21;74.77;97715.15;1772090;80;21093;-66
2021/01/30 02:55:14;;;;;;;26.35;15.63;;;;;;;-8.23;74.74;97713.87;1780588;79;21065;-66
2021/01/30 02:57:41;;;;;;;24.40;14.28;;;;;;;-8.22;74.88;97715.98;1804365;78;21086;-66
2021/01/30 03:00:12;;;;;;;28.30;15.13;;;;;;;-8.20;74.76;97713.90;1804372;79;21118;-66
2021/01/30 03:02:40;;;;;;;29.00;16.42;;;;;;;-8.22;74.32;97715.56;1804320;79;21345;-66
2021/01/30 03:05:10;;;;;;;30.75;17.27;;;;;;;-8.23;74.38;97712.63;1804268;79;21586;-65
2021/01/30 03:08:05;;;;;;;28.87;16.52;;;;;;;-8.24;74.33;97702.11;1804324;79;21082;-66
2021/01/30 03:10:58;;;;;;;24.45;14.50;;;;;;;-8.24;74.24;97694.95;1804333;78;21523;-65
2021/01/30 03:13:38;;;;;;;27.48;14.98;;;;;;;-8.26;74.13;97701.67;1804312;79;21086;-65
2021/01/30 03:16:16;;;;;;;24.05;13.48;;;;;;;-8.31;74.11;97695.34;1804128;79;21502;-65
2021/01/30 03:18:55;;;;;;;25.62;13.80;;;;;;;-8.36;74.18;97694.08;1804338;79;21066;-66
2021/01/30 03:21:23;;;;;;;22.27;12.63;;;;;;;-8.38;74.17;97686.92;1804368;79;21455;-66
2021/01/30 03:23:51;;;;;;;21.75;11.63;;;;;;;-8.41;74.13;97678.53;1804300;78;21129;-67
2021/01/30 03:26:21;;;;;;;21.10;10.55;;;;;;;-8.41;74.10;97674.75;1804312;79;21069;-67
2021/01/30 03:28:49;;;;;;;21.93;10.75;;;;;;;-8.42;74.02;97674.33;1804423;79;23445;-67
2021/01/30 03:31:17;;;;;;;16.85;10.82;;;;;;;-8.45;73.95;97670.53;1804425;79;21157;-67
2021/01/30 03:33:45;;;;;;;20.72;11.45;;;;;;;-8.50;73.97;97670.91;1804581;79;21480;-67
2021/01/30 03:36:12;;;;;;;19.48;11.12;;;;;;;-8.56;74.05;97669.61;1804491;79;21486;-66
2021/01/30 03:38:40;;;;;;;18.70;10.45;;;;;;;-8.57;74.25;97661.63;1777730;79;21570;-66
2021/01/30 03:41:08;;;;;;;18.00;10.80;;;;;;;-8.56;74.31;97661.64;1804504;79;21558;-66
2021/01/30 03:43:36;;;;;;;17.73;10.50;;;;;;;-8.55;74.32;97658.28;1804468;78;21531;-66
2021/01/30 03:46:03;;;;;;;16.97;10.68;;;;;;;-8.53;74.50;97662.07;1804545;79;21070;-66
2021/01/30 03:48:31;;;;;;;18.52;11.20;;;;;;;-8.50;74.45;97664.20;1804479;78;21058;-66
2021/01/30 03:50:59;;;;;;;16.12;10.28;;;;;;;-8.48;74.45;97657.91;1800773;78;21186;-66
2021/01/30 03:53:27;;;;;;;22.48;12.25;;;;;;;-8.46;74.61;97662.13;1781595;80;22175;-66
2021/01/30 03:55:54;;;;;;;19.65;10.85;;;;;;;-8.42;74.59;97662.56;1781476;79;21113;-66
2021/01/30 03:58:22;;;;;;;20.00;10.75;;;;;;;-8.40;74.66;97655.01;1781636;80;21496;-66
2021/01/30 04:00:49;;;;;;;19.12;12.23;;;;;;;-8.35;74.70;97656.69;1781539;80;21563;-66
2021/01/30 04:03:17;;;;;;;19.77;11.48;;;;;;;-8.29;74.78;97659.63;1781478;80;21138;-66
2021/01/30 04:05:45;;;;;;;19.20;11.93;;;;;;;-8.26;74.88;97667.63;1781496;80;21281;-66
2021/01/30 04:08:13;;;;;;;18.37;11.60;;;;;;;-8.21;75.09;97676.06;1781482;80;21083;-66
2021/01/30 04:10:41;;;;;;;21.60;11.15;;;;;;;-8.14;75.42;97676.48;1781525;80;21088;-66
2021/01/30 04:13:10;;;;;;;19.70;11.73;;;;;;;-8.05;75.51;97684.09;1781504;80;21122;-66
2021/01/30 04:15:41;;;;;;;18.70;11.65;;;;;;;-7.98;75.39;97683.26;1781649;80;21564;-67
2021/01/30 04:18:10;;;;;;;19.30;11.97;;;;;;;-7.89;75.61;97680.77;1781516;80;21272;-67
2021/01/30 04:20:39;;;;;;;17.82;11.38;;;;;;;-7.81;75.44;97670.30;1781570;80;21492;-66
2021/01/30 04:23:08;;;;;;;22.95;12.37;;;;;;;-7.72;75.44;97668.19;1781503;80;21154;-66
2021/01/30 04:25:36;;;;;;;18.57;12.18;;;;;;;-7.62;75.32;97667.80;1781612;79;21154;-66
2021/01/30 04:28:05;;;;;;;21.33;12.50;;;;;;;-7.55;74.88;97678.30;1781621;80;21492;-66
2021/01/30 04:30:32;;;;;;;22.00;13.10;;;;;;;-7.58;75.11;97676.61;1781492;80;21193;-66
2021/01/30 04:33:02;;;;;;;21.10;13.25;;;;;;;-7.53;75.21;97682.94;1781575;80;21102;-66
2021/01/30 04:35:34;;;;;;;24.60;12.95;;;;;;;-7.50;74.94;97680.42;1781512;80;21111;-66
2021/01/30 04:38:03;;;;;;;23.77;12.93;;;;;;;-7.47;75.11;97678.75;1781780;80;21496;-67
2021/01/30 04:40:35;;;;;;;23.22;13.32;;;;;;;-7.43;75.27;97683.39;1781613;80;21543;-66
2021/01/30 04:43:24;;;;;;;24.30;14.25;;;;;;;-7.39;75.24;97685.05;1781632;79;21361;-67
2021/01/30 04:46:34;;;;;;;27.60;15.55;;;;;;;-7.33;75.22;97693.48;1760359;80;21079;-66
2021/01/30 04:49:20;;;;;;;31.57;18.10;;;;;;;-7.23;75.20;97679.61;1781601;80;21468;-67
2021/01/30 04:52:27;;;;;;;28.17;14.98;;;;;;;-7.12;74.93;97680.02;1775297;79;21107;-66
2021/01/30 04:55:34;;;;;;;20.72;12.00;;;;;;;-7.05;74.71;97680.44;1763561;80;21057;-67
2021/01/30 04:58:18;;;;;;;19.17;11.73;;;;;;;-6.97;74.28;97677.89;1763809;81;21188;-66
2021/01/30 05:01:10;;;;;;;18.07;12.07;;;;;;;-6.90;74.03;97678.31;1763720;81;21070;-65
2021/01/30 05:04:01;;;;;;;18.17;11.30;;;;;;;-6.85;73.96;97669.05;1763720;81;21117;-66
2021/01/30 05:06:58;;;;;;;18.50;11.28;;;;;;;-6.85;73.82;97663.99;1763756;81;21526;-65
2021/01/30 05:09:49;;;;;;;21.82;11.73;;;;;;;-6.90;73.66;97657.25;1763804;81;21659;-65
2021/01/30 05:12:28;;;;;;;22.55;13.48;;;;;;;-6.95;73.66;97655.98;1763693;81;21621;-66
2021/01/30 05:15:24;;;;;;;22.58;13.30;;;;;;;-6.95;73.69;97653.46;1763689;80;21498;-65
2021/01/30 05:18:03;;;;;;;26.10;14.55;;;;;;;-6.92;73.83;97649.67;1763762;81;21468;-66
2021/01/30 05:20:34;;;;;;;28.00;14.83;;;;;;;-6.86;73.75;97647.56;1763764;81;21170;-66
2021/01/30 05:23:04;;;;;;;24.27;14.68;;;;;;;-6.83;73.57;97647.14;1763730;81;21058;-67
2021/01/30 05:25:32;;;;;;;30.00;17.30;;;;;;;-6.84;73.54;97645.45;1763758;80;21319;-67
2021/01/30 05:28:18;;;;;;;28.35;15.72;;;;;;;-6.82;73.72;97642.51;1736243;81;21613;-66
2021/01/30 05:31:24;;;;;;;27.35;15.60;;;;;;;-6.75;73.80;97639.52;1763735;81;21085;-66
2021/01/30 05:34:17;;;;;;;28.60;16.12;;;;;;;-6.69;73.68;97642.88;1763787;81;21034;-67
2021/01/30 05:37:05;;;;;;;29.95;16.55;;;;;;;-6.61;73.61;97640.34;1758500;81;21478;-67
2021/01/30 05:40:03;;;;;;;28.35;15.60;;;;;;;-6.56;73.58;97644.09;1763727;81;21422;-67
2021/01/30 05:42:52;;;;;;;25.23;14.63;;;;;;;-6.51;74.07;97649.99;1763723;81;21565;-67
2021/01/30 05:45:47;;;;;;;26.55;14.35;;;;;;;-6.44;74.24;97652.51;1702831;81;21169;-65
2021/01/30 05:48:20;;;;;;;25.25;14.38;;;;;;;-6.36;74.31;97652.04;1763713;81;21058;-66
2021/01/30 05:50:55;;;;;;;25.40;13.85;;;;;;;-6.26;74.52;97645.27;1763805;81;21597;-66
2021/01/30 05:53:24;;;;;;;23.30;13.50;;;;;;;-6.23;74.41;97646.53;1778251;79;21173;-66
2021/01/30 05:55:52;;;;;;;20.08;12.30;;;;;;;-6.19;74.72;97654.95;1781445;79;21488;-66
2021/01/30 05:58:22;;;;;;;20.60;12.63;;;;;;;-6.10;74.93;97649.83;1706154;80;21119;-67
2021/01/30 06:00:50;;;;;;;18.87;11.33;;;;;;;-5.99;74.93;97651.87;1781532;80;21525;-66
2021/01/30 06:03:22;;;;;;;20.62;12.50;;;;;;;-5.88;74.95;97651.83;1781410;80;21570;-67
2021/01/30 06:05:53;;;;;;;18.67;12.13;;;;;;;-5.76;74.75;97650.02;1781705;80;21322;-66
2021/01/30 06:08:29;;;;;;;17.77;11.18;;;;;;;-5.65;74.53;97643.64;1781385;80;21119;-67
2021/01/30 06:11:07;;;;;;;20.05;12.47;;;;;;;-5.56;74.33;97631.73;1781444;80;21147;-66
2021/01/30 06:13:35;;;;;;;23.73;14.00;;;;;;;-5.49;74.07;97628.75;1778405;80;21488;-65
2021/01/30 06:16:03;;;;;;;58.98;30.55;;;;;;;-5.42;73.84;97634.19;1705897;80;21496;-66
2021/01/30 06:18:36;;;;;;;101.38;72.97;;;;;;;-5.39;73.80;97635.41;1781514;80;22245;-67
2021/01/30 06:21:20;;;;;;;32.23;19.20;;;;;;;-5.37;73.90;97625.27;1781445;80;21059;-67
2021/01/30 06:24:19;;;;;;;33.30;17.07;;;;;;;-5.34;74.22;97618.91;1781429;80;21166;-67
2021/01/30 06:26:54;;;;;;;32.73;18.65;;;;;;;-5.17;74.05;97608.63;1873613;76;22663;-67
2021/01/30 06:29:43;;;;;;;32.33;17.65;;;;;;;-5.17;74.03;97599.33;1841643;78;21514;-67
2021/01/30 06:32:41;;;;;;;26.48;16.27;;;;;;;-5.10;73.94;97597.59;1841682;78;21184;-66
2021/01/30 06:35:21;;;;;;;26.55;14.83;;;;;;;-5.03;73.85;97592.88;1841485;78;20950;-67
2021/01/30 06:37:53;;;;;;;21.45;13.00;;;;;;;-5.04;73.95;97602.18;1841615;77;21586;-65
2021/01/30 06:40:35;;;;;;;18.70;11.48;;;;;;;-5.01;73.96;97610.19;1841737;78;28568;-66
2021/01/30 06:43:11;;;;;;;21.62;13.15;;;;;;;-4.99;74.17;97601.69;1841719;78;21061;-66
2021/01/30 06:45:42;;;;;;;24.63;15.53;;;;;;;-4.94;74.31;97602.48;1841563;78;21360;-66
2021/01/30 06:48:39;;;;;;;25.65;14.78;;;;;;;-4.84;74.78;97594.38;1841496;78;21044;-66
2021/01/30 06:51:37;;;;;;;21.42;14.03;;;;;;;-4.70;74.38;97594.22;1841603;77;21580;-66
2021/01/30 06:54:25;;;;;;;20.02;15.35;;;;;;;-4.62;74.18;97593.72;1841560;78;21042;-66
2021/01/30 06:57:16;;;;;;;21.52;15.05;;;;;;;-4.53;74.13;97591.05;1811499;78;21457;-67
2021/01/30 07:00:07;;;;;;;22.52;14.25;;;;;;;-4.46;74.04;97581.68;1808377;79;22269;-66
2021/01/30 07:02:48;;;;;;;21.48;13.45;;;;;;;-4.39;73.98;97585.80;1805361;79;21108;-67
2021/01/30 07:05:25;;;;;;;22.50;14.13;;;;;;;-4.38;73.92;97580.71;1808592;78;21180;-66
2021/01/30 07:08:15;;;;;;;23.20;14.78;;;;;;;-4.34;74.27;97577.28;1808514;79;21053;-66
2021/01/30 07:11:19;;;;;;;23.62;14.23;;;;;;;-4.26;74.31;97569.58;1808556;79;21038;-66
2021/01/30 07:13:55;;;;;;;21.20;13.15;;;;;;;-4.17;74.12;97562.67;1808425;79;21382;-66
2021/01/30 07:17:02;;;;;;;23.20;15.18;;;;;;;-4.06;73.93;97561.70;1808362;79;21097;-67
2021/01/30 07:19:47;;;;;;;20.70;14.35;;;;;;;-3.99;74.37;97564.11;1803071;79;21569;-66
2021/01/30 07:22:22;;;;;;;24.05;16.40;;;;;;;-3.89;74.15;97567.37;1807593;78;21486;-66
2021/01/30 07:25:14;;;;;;;24.02;15.23;;;;;;;-3.82;74.49;97563.45;1779651;79;21061;-67
2021/01/30 07:27:53;;;;;;;27.60;15.23;;;;;;;-3.61;74.68;97550.86;1814251;78;21494;-66
2021/01/30 07:30:48;;;;;;;19.70;14.07;;;;;;;-3.50;74.17;97546.86;1814233;79;21514;-68
2021/01/30 07:33:20;;;;;;;23.83;15.58;;;;;;;-3.43;74.21;97541.25;1790233;79;21144;-67
2021/01/30 07:36:02;;;;;;;17.05;12.70;;;;;;;-3.34;74.20;97536.00;1814371;79;21116;-68
2021/01/30 07:38:48;;;;;;;18.82;12.43;;;;;;;-3.25;74.02;97532.03;1812861;78;21120;-67
2021/01/30 07:41:30;;;;;;;18.42;13.48;;;;;;;-3.23;73.71;97530.30;1803469;79;21374;-67
2021/01/30 07:44:22;;;;;;;21.23;14.07;;;;;;;-3.23;73.92;97526.06;1803090;79;21564;-67
2021/01/30 07:47:22;;;;;;;20.77;14.53;;;;;;;-3.20;74.09;97527.25;1807090;79;21066;-67
2021/01/30 07:49:54;;;;;;;29.40;16.87;;;;;;;-3.14;74.33;97532.23;1773303;81;21160;-66
2021/01/30 07:52:30;;;;;;;23.40;15.28;;;;;;;-3.08;74.61;97529.19;1773409;81;21085;-66
2021/01/30 07:54:57;;;;;;;30.48;18.32;;;;;;;-3.04;74.66;97529.11;1794218;77;21379;-66
2021/01/30 07:58:16;;;;;;;25.43;16.70;;;;;;;-3.02;74.56;97529.92;1813486;79;21101;-66
2021/01/30 08:01:02;;;;;;;28.75;16.20;;;;;;;-3.04;74.81;97526.56;1813685;79;21525;-67
2021/01/30 08:03:38;;;;;;;29.63;16.65;;;;;;;-3.06;75.13;97530.84;1795656;79;21112;-66
2021/01/30 08:06:37;;;;;;;24.98;15.13;;;;;;;-3.05;75.55;97525.32;1813619;79;21612;-66
2021/01/30 08:09:52;;;;;;;21.40;13.93;;;;;;;-3.02;75.68;97531.19;1813485;78;21009;-67
2021/01/30 08:12:48;;;;;;;25.05;16.10;;;;;;;-2.98;75.94;97530.24;1813632;79;21109;-67
2021/01/30 08:15:42;;;;;;;36.88;20.52;;;;;;;-3.01;76.17;97527.78;1811128;79;21133;-67
2021/01/30 08:18:38;;;;;;;25.17;16.97;;;;;;;-2.98;76.56;97531.52;1813657;78;21069;-66
2021/01/30 08:21:15;;;;;;;29.48;19.82;;;;;;;-2.92;76.61;97523.78;1813506;79;21180;-66
2021/01/30 08:24:14;;;;;;;25.12;17.57;;;;;;;-2.85;76.97;97522.80;1799540;79;21385;-67
2021/01/30 08:27:05;;;;;;;28.25;19.35;;;;;;;-2.74;77.00;97515.38;1809494;78;21093;-66
2021/01/30 08:29:37;;;;;;;22.32;14.90;;;;;;;-2.63;77.20;97510.93;1799324;79;21073;-66
2021/01/30 08:32:27;;;;;;;23.67;15.72;;;;;;;-2.50;77.25;97495.36;1806249;79;21135;-67
2021/01/30 08:34:57;;;;;;;19.10;14.30;;;;;;;-2.36;77.32;97495.06;1807884;78;21049;-68
2021/01/30 08:37:31;;;;;;;28.40;18.67;;;;;;;-2.25;77.07;97497.39;1807817;79;21354;-69
2021/01/30 08:40:10;;;;;;;29.92;20.52;;;;;;;-2.17;77.26;97496.77;1807719;79;21081;-67
2021/01/30 08:42:54;;;;;;;29.85;19.70;;;;;;;-2.06;77.41;97497.81;1807787;79;21092;-67
2021/01/30 08:45:33;;;;;;;31.40;20.12;;;;;;;-1.95;77.21;97493.30;1806308;79;21498;-66
2021/01/30 08:48:26;;;;;;;28.73;19.50;;;;;;;-1.84;77.13;97500.27;1807930;78;21669;-66
2021/01/30 08:50:56;;;;;;;29.23;19.70;;;;;;;-1.78;77.07;97500.10;1807774;79;21270;-67
2021/01/30 08:53:28;;;;;;;30.12;20.72;;;;;;;-1.77;77.08;97497.95;1807716;78;21077;-67
2021/01/30 08:56:00;;;;;;;29.15;20.72;;;;;;;-1.73;77.13;97497.02;1807964;78;21584;-66
2021/01/30 08:58:39;;;;;;;27.73;18.23;;;;;;;-1.70;77.26;97498.66;1778881;79;21132;-66
2021/01/30 09:01:27;;;;;;;28.70;19.67;;;;;;;-1.68;77.33;97495.20;1807791;78;21137;-67
2021/01/30 09:03:58;;;;;;;32.17;20.43;;;;;;;-1.67;77.64;97491.78;1797985;78;21296;-66
2021/01/30 09:06:51;;;;;;;28.55;19.98;;;;;;;-1.64;77.62;97487.88;1807722;79;21169;-67
2021/01/30 09:09:22;;;;;;;33.58;21.70;;;;;;;-1.61;77.52;97490.80;1807887;78;21552;-67
2021/01/30 09:11:56;;;;;;;30.95;20.60;;;;;;;-1.60;77.75;97482.28;1807772;79;21113;-67
2021/01/30 09:14:29;;;;;;;22.35;17.07;;;;;;;-1.55;77.70;97473.62;1807915;79;21471;-67
2021/01/30 09:17:09;;;;;;;23.77;17.10;;;;;;;-1.52;77.82;97464.63;1807779;79;21548;-66
2021/01/30 09:19:54;;;;;;;25.43;17.75;;;;;;;-1.50;77.74;97466.70;1807712;79;21165;-67
2021/01/30 09:22:45;;;;;;;32.15;21.45;;;;;;;-1.54;77.99;97461.27;1807737;79;21004;-67
2021/01/30 09:25:40;;;;;;;29.95;18.95;;;;;;;-1.55;78.35;97458.32;1807765;78;21136;-67
2021/01/30 09:28:23;;;;;;;30.25;21.35;;;;;;;-1.55;78.60;97458.77;1807788;79;21109;-66
2021/01/30 09:31:04;;;;;;;29.67;20.27;;;;;;;-1.52;78.83;97460.80;1807898;79;22096;-67
2021/01/30 09:33:37;;;;;;;33.92;23.18;;;;;;;-1.50;79.06;97452.67;1778929;79;21486;-67
2021/01/30 09:36:15;;;;;;;29.50;20.37;;;;;;;-1.45;79.15;97458.50;1807712;78;21077;-67
2021/01/30 09:38:46;;;;;;;30.82;20.85;;;;;;;-1.45;79.03;97444.92;1807756;79;21789;-67
2021/01/30 09:41:24;;;;;;;28.65;19.70;;;;;;;-1.43;79.30;97448.27;1807892;79;21633;-67
2021/01/30 09:44:20;;;;;;;31.50;21.70;;;;;;;-1.36;79.50;97446.38;1807904;79;22127;-67
2021/01/30 09:46:57;;;;;;;32.90;22.58;;;;;;;-1.26;79.53;97446.54;1807693;79;21112;-68
2021/01/30 09:49:34;;;;;;;41.83;26.25;;;;;;;-1.21;79.23;97439.17;1807719;78;20939;-68
2021/01/30 09:52:04;;;;;;;45.70;27.48;;;;;;;-1.17;79.31;97445.00;1807733;79;21057;-66
2021/01/30 09:54:32;;;;;;;34.00;23.83;;;;;;;-1.09;79.72;97432.89;1807761;78;21471;-67
2021/01/30 09:57:06;;;;;;;39.95;27.15;;;;;;;-0.96;79.44;97425.72;1807666;78;21485;-67
2021/01/30 09:59:33;;;;;;;38.95;26.07;;;;;;;-0.89;79.49;97420.41;1807694;79;21089;-67
2021/01/30 10:02:19;;;;;;;35.75;23.77;;;;;;;-0.74;79.64;97419.13;1807663;79;21192;-67
2021/01/30 10:04:47;;;;;;;36.20;23.12;;;;;;;-0.58;79.23;97415.67;1778909;79;21113;-67
2021/01/30 10:07:19;;;;;;;40.40;26.82;;;;;;;-0.50;78.99;97415.01;1807715;79;21089;-67
2021/01/30 10:09:48;;;;;;;40.20;26.05;;;;;;;-0.39;78.67;97417.63;1807636;78;21368;-67
2021/01/30 10:12:19;;;;;;;34.03;23.25;;;;;;;-0.30;78.37;97408.02;1807630;79;21152;-66
2021/01/30 10:14:53;;;;;;;35.68;25.12;;;;;;;-0.25;78.21;97404.44;1807715;78;21164;-67
2021/01/30 10:17:31;;;;;;;40.15;25.65;;;;;;;-0.22;77.96;97399.69;1807672;79;21061;-67
2021/01/30 10:20:12;;;;;;;36.03;24.87;;;;;;;-0.22;77.76;97399.24;1807741;79;21133;-67
2021/01/30 10:22:46;;;;;;;37.67;26.82;;;;;;;-0.17;77.85;97392.69;1807780;79;22249;-68
2021/01/30 10:25:22;;;;;;;29.40;22.35;;;;;;;-0.13;78.09;97388.72;1807766;79;21506;-67
2021/01/30 10:27:50;;;;;;;32.03;22.90;;;;;;;-0.02;77.79;97382.83;1800148;79;21132;-68
2021/01/30 10:30:18;;;;;;;30.52;23.55;;;;;;;-0.03;77.37;97379.88;1784368;79;21108;-68
2021/01/30 10:32:54;;;;;;;31.68;22.95;;;;;;;-0.03;77.24;97381.60;1799830;79;21148;-67
2021/01/30 10:35:33;;;;;;;31.35;22.87;;;;;;;-0.04;77.19;97368.44;1799737;78;23558;-68
2021/01/30 10:38:12;;;;;;;30.88;22.85;;;;;;;0.00;77.13;97364.42;1889964;75;22620;-66
2021/01/30 10:40:51;;;;;;;31.77;23.60;;;;;;;-0.03;77.25;97362.00;1860920;77;20978;-67
2021/01/30 10:43:29;;;;;;;31.73;24.05;;;;;;;0.02;77.26;97349.04;1860521;77;21362;-67
2021/01/30 10:45:59;;;;;;;33.20;23.87;;;;;;;0.05;77.15;97348.11;1860843;77;20946;-67
2021/01/30 10:48:32;;;;;;;33.90;23.92;;;;;;;0.04;77.00;97339.61;1860912;77;20950;-67
2021/01/30 10:51:07;;;;;;;33.25;24.70;;;;;;;0.08;77.10;97337.79;1860924;77;20918;-67
2021/01/30 10:53:40;;;;;;;37.15;25.52;;;;;;;0.14;77.35;97335.87;1860893;77;21048;-67
2021/01/30 10:56:28;;;;;;;35.70;24.75;;;;;;;0.19;77.49;97334.44;1841618;77;21185;-69
2021/01/30 10:58:56;;;;;;;36.60;25.62;;;;;;;0.24;77.37;97329.98;1827227;78;21450;-67
2021/01/30 11:01:32;;;;;;;39.27;27.48;;;;;;;0.26;77.50;97324.38;1827141;78;20997;-68
2021/01/30 11:04:02;;;;;;;35.98;25.25;;;;;;;0.29;77.53;97320.44;1826310;78;21175;-68
2021/01/30 11:06:47;;;;;;;37.20;25.57;;;;;;;0.34;77.59;97314.28;1827131;78;21056;-67
2021/01/30 11:09:24;;;;;;;31.90;23.92;;;;;;;0.37;77.56;97312.07;1827162;78;21270;-68
2021/01/30 11:12:13;;;;;;;37.28;25.20;;;;;;;0.42;77.84;97307.60;1827192;78;21116;-68
2021/01/30 11:14:41;;;;;;;39.95;27.67;;;;;;;0.52;77.69;97298.73;1827323;78;21600;-68
2021/01/30 11:17:28;;;;;;;38.38;26.87;;;;;;;0.58;77.36;97297.69;1795424;78;21140;-67
2021/01/30 11:19:57;;;;;;;36.50;26.30;;;;;;;0.58;77.17;97297.69;1797787;78;21084;-67
2021/01/30 11:22:27;;;;;;;35.70;26.65;;;;;;;0.56;77.41;97300.30;1827147;78;21176;-67
2021/01/30 11:25:11;;;;;;;35.20;25.85;;;;;;;0.59;77.43;97298.08;1827169;78;21481;-68
2021/01/30 11:27:45;;;;;;;36.53;26.23;;;;;;;0.60;77.58;97285.67;1827123;78;21085;-68
2021/01/30 11:30:28;;;;;;;29.57;21.95;;;;;;;0.62;77.67;97293.66;1827091;78;21160;-69
2021/01/30 11:33:14;;;;;;;32.48;23.35;;;;;;;0.69;77.72;97287.44;1826878;78;21068;-69
2021/01/30 11:35:45;;;;;;;30.92;22.73;;;;;;;0.74;78.02;97285.16;1827065;78;21366;-68
2021/01/30 11:38:17;;;;;;;31.50;23.75;;;;;;;0.80;77.79;97289.58;1826922;78;21163;-68
2021/01/30 11:40:46;;;;;;;26.23;20.10;;;;;;;0.86;77.83;97282.13;1827225;78;21049;-69
2021/01/30 11:43:14;;;;;;;29.12;23.10;;;;;;;0.91;77.81;97278.95;1827094;78;21560;-68
2021/01/30 11:45:42;;;;;;;34.08;23.83;;;;;;;0.87;77.54;97287.19;1827181;78;21560;-68
2021/01/30 11:48:10;;;;;;;32.10;23.73;;;;;;;0.80;77.95;97278.06;1826912;78;22347;-68
2021/01/30 11:50:38;;;;;;;26.75;21.62;;;;;;;0.81;78.11;97278.91;1826426;78;21072;-69
2021/01/30 11:53:11;;;;;;;29.50;22.30;;;;;;;0.84;78.33;97272.39;1826522;78;21057;-69
2021/01/30 11:55:42;;;;;;;37.23;27.73;;;;;;;0.90;78.40;97272.17;1826738;77;21481;-69
2021/01/30 11:58:11;;;;;;;34.67;27.42;;;;;;;0.92;78.59;97272.51;1826498;78;21057;-69
2021/01/30 12:00:38;;;;;;;31.17;24.43;;;;;;;0.99;78.69;97272.67;1826429;78;21325;-69
2021/01/30 12:03:06;;;;;;;29.15;22.50;;;;;;;1.01;78.76;97279.81;1826395;78;21093;-70
2021/01/30 12:05:34;;;;;;;28.45;21.90;;;;;;;1.07;78.92;97271.08;1826427;78;20970;-69
2021/01/30 12:08:03;;;;;;;28.65;22.42;;;;;;;1.11;78.98;97284.59;1826455;78;21124;-70